createdAt,value
2018-11-03T00:04:19.837Z,16.87
2018-11-03T00:09:17.284Z,16.07
2018-11-03T00:14:14.727Z,15.77
2018-11-03T00:19:12.432Z,15.03
2018-11-03T00:24:09.883Z,16.07
2018-11-03T00:29:07.688Z,16.80
2018-11-03T00:34:05.612Z,16.10
2018-11-03T00:39:05.270Z,15.50
2018-11-03T00:44:02.725Z,16.30
2018-11-03T00:49:00.216Z,14.20
2018-11-03T00:53:57.668Z,13.30
2018-11-03T00:58:55.292Z,15.60
2018-11-03T01:03:52.744Z,14.30
2018-11-03T01:08:50.332Z,14.80
2018-11-03T01:13:47.774Z,16.67
2018-11-03T01:18:45.216Z,15.27
2018-11-03T01:23:42.708Z,13.90
2018-11-03T01:28:40.125Z,15.90
2018-11-03T01:33:37.672Z,15.03
2018-11-03T01:38:35.113Z,15.30
2018-11-03T01:43:32.549Z,14.83
2018-11-03T01:48:29.988Z,14.50
2018-11-03T01:53:27.432Z,14.80
2018-11-03T01:58:24.860Z,16.70
2018-11-03T02:03:22.349Z,15.77
2018-11-03T02:08:19.749Z,15.10
2018-11-03T02:13:17.212Z,15.50
2018-11-03T02:18:14.642Z,15.97
2018-11-03T02:23:12.135Z,16.73
2018-11-03T02:28:09.550Z,15.40
2018-11-03T02:33:07.062Z,15.90
2018-11-03T02:38:04.517Z,14.43
2018-11-03T02:43:01.956Z,15.90
2018-11-03T02:47:59.404Z,17.17
2018-11-03T02:52:56.847Z,16.47
2018-11-03T02:57:54.288Z,16.77
2018-11-03T03:02:51.765Z,18.00
2018-11-03T03:07:49.375Z,15.07
2018-11-03T03:12:46.800Z,16.53
2018-11-03T03:17:44.249Z,15.80
2018-11-03T03:22:41.944Z,16.80
2018-11-03T03:27:39.640Z,18.00
2018-11-03T03:32:37.207Z,17.83
2018-11-03T03:37:34.644Z,15.97
2018-11-03T03:42:32.092Z,15.40
2018-11-03T03:47:29.532Z,15.80
2018-11-03T03:52:26.977Z,15.53
2018-11-03T03:57:24.389Z,15.57
2018-11-03T04:02:21.836Z,14.50
2018-11-03T04:07:19.273Z,15.00
2018-11-03T04:12:16.708Z,17.20
2018-11-03T04:17:14.145Z,14.90
2018-11-03T04:22:11.585Z,15.43
2018-11-03T04:27:09.015Z,15.60
2018-11-03T04:32:06.561Z,15.63
2018-11-03T04:37:04.036Z,15.73
2018-11-03T04:42:01.483Z,15.93
2018-11-03T04:46:58.920Z,15.93
2018-11-03T04:51:56.345Z,15.63
2018-11-03T04:56:53.781Z,14.20
2018-11-03T05:01:51.231Z,13.90
2018-11-03T05:06:48.664Z,14.70
2018-11-03T05:11:46.098Z,16.20
2018-11-03T05:16:43.530Z,16.47
2018-11-03T05:21:41.766Z,16.40
2018-11-03T05:26:39.213Z,16.50
2018-11-03T05:31:37.345Z,16.43
2018-11-03T05:36:34.784Z,15.73
2018-11-03T05:41:32.224Z,15.40
2018-11-03T05:46:30.862Z,14.63
2018-11-03T05:51:28.371Z,14.67
2018-11-03T05:56:25.856Z,16.13
2018-11-03T06:01:23.309Z,15.27
2018-11-03T06:06:20.811Z,14.90
2018-11-03T06:11:18.261Z,14.50
2018-11-03T06:16:20.853Z,14.03
2018-11-03T06:21:18.364Z,16.67
2018-11-03T06:26:15.836Z,16.50
2018-11-03T06:31:13.330Z,16.30
2018-11-03T06:36:10.800Z,17.07
2018-11-03T06:41:08.260Z,16.90
2018-11-03T06:46:11.515Z,16.30
2018-11-03T06:51:09.036Z,17.07
2018-11-03T06:56:06.475Z,15.40
2018-11-03T07:01:04.021Z,14.70
2018-11-03T07:06:01.472Z,14.90
2018-11-03T07:10:58.940Z,17.57
2018-11-03T07:16:09.028Z,17.97
2018-11-03T07:21:06.606Z,17.50
2018-11-03T07:26:04.248Z,21.07
2018-11-03T07:31:01.775Z,19.73
2018-11-03T07:35:59.245Z,20.70
2018-11-03T07:40:56.843Z,22.17
2018-11-03T07:46:04.353Z,21.03
2018-11-03T07:51:03.032Z,20.27
2018-11-03T07:56:00.530Z,24.40
2018-11-03T08:00:58.089Z,21.43
2018-11-03T08:05:55.624Z,23.67
2018-11-03T08:10:53.133Z,26.20
2018-11-03T08:15:57.317Z,24.87
2018-11-03T08:20:54.809Z,25.27
2018-11-03T08:25:52.310Z,26.20
2018-11-03T08:30:49.985Z,25.87
2018-11-03T08:35:47.459Z,26.87
2018-11-03T08:40:44.982Z,26.87
2018-11-03T08:45:44.456Z,26.07
2018-11-03T08:50:42.048Z,26.93
2018-11-03T08:55:39.528Z,26.30
2018-11-03T09:00:37.012Z,25.23
2018-11-03T09:05:34.517Z,24.43
2018-11-03T09:10:32.024Z,24.07
2018-11-03T09:15:29.579Z,24.60
2018-11-03T09:20:29.151Z,23.43
2018-11-03T09:25:26.831Z,25.23
2018-11-03T09:30:24.424Z,24.70
2018-11-03T09:35:21.910Z,23.17
2018-11-03T09:40:19.460Z,22.97
2018-11-03T09:45:16.960Z,23.10
2018-11-03T09:50:15.152Z,23.07
2018-11-03T09:55:14.773Z,23.73
2018-11-03T10:00:14.264Z,22.27
2018-11-03T10:05:12.823Z,23.10
2018-11-03T10:10:13.550Z,22.80
2018-11-03T10:15:12.245Z,24.37
2018-11-03T10:20:10.141Z,23.50
2018-11-03T10:25:11.282Z,23.13
2018-11-03T10:30:09.984Z,23.20
2018-11-03T10:35:07.968Z,24.20
2018-11-03T10:40:08.281Z,24.20
2018-11-03T10:45:07.182Z,22.80
2018-11-03T10:50:07.554Z,23.53
2018-11-03T10:55:05.784Z,24.93
2018-11-03T11:00:04.236Z,25.90
2018-11-03T11:05:07.424Z,24.47
2018-11-03T11:10:11.040Z,25.40
2018-11-03T11:15:09.142Z,23.97
2018-11-03T11:20:07.720Z,22.27
2018-11-03T11:25:07.056Z,22.63
2018-11-03T11:30:05.102Z,20.70
2018-11-03T11:35:02.563Z,20.30
2018-11-03T11:40:00.053Z,20.50
2018-11-03T11:44:57.526Z,18.40
2018-11-03T11:49:55.092Z,17.83
2018-11-03T11:54:52.653Z,15.43
2018-11-03T11:59:50.068Z,16.23
2018-11-03T12:04:47.512Z,14.13
2018-11-03T12:09:44.961Z,14.03
2018-11-03T12:14:42.440Z,12.03
2018-11-03T12:19:39.892Z,13.50
2018-11-03T12:24:37.348Z,12.00
2018-11-03T12:29:34.805Z,10.43
2018-11-03T12:34:32.352Z,9.37
2018-11-03T12:39:29.839Z,6.10
2018-11-03T12:44:27.276Z,8.97
2018-11-03T12:49:24.774Z,8.30
2018-11-03T12:54:22.265Z,9.03
2018-11-03T12:59:19.768Z,8.57
2018-11-03T13:04:17.198Z,10.10
2018-11-03T13:09:14.643Z,10.87
2018-11-03T13:14:12.255Z,8.60
2018-11-03T13:19:09.727Z,7.53
2018-11-03T13:24:07.171Z,7.10
2018-11-03T13:29:05.120Z,8.03
2018-11-03T13:34:02.548Z,8.00
2018-11-03T13:39:00.000Z,7.30
2018-11-03T13:43:57.449Z,6.97
2018-11-03T13:48:54.915Z,6.67
2018-11-03T13:53:52.366Z,7.20
2018-11-03T13:58:49.801Z,6.90
2018-11-03T14:03:47.229Z,5.60
2018-11-03T14:08:44.682Z,5.27
2018-11-03T14:13:42.123Z,5.83
2018-11-03T14:18:39.756Z,5.33
2018-11-03T14:23:37.233Z,5.50
2018-11-03T14:28:34.683Z,5.50
2018-11-03T14:33:32.158Z,6.53
2018-11-03T14:38:29.601Z,6.10
2018-11-03T14:43:27.057Z,5.70
2018-11-03T14:48:24.504Z,6.10
2018-11-03T14:53:21.989Z,6.33
2018-11-03T14:58:19.498Z,5.43
2018-11-03T15:03:16.947Z,5.90
2018-11-03T15:08:14.399Z,6.13
2018-11-03T15:13:11.866Z,5.80
2018-11-03T15:18:09.305Z,6.37
2018-11-03T15:23:12.724Z,5.50
2018-11-03T15:28:10.228Z,5.03
2018-11-03T15:33:07.734Z,5.20
2018-11-03T15:38:05.292Z,5.43
2018-11-03T15:43:02.730Z,5.83
2018-11-03T15:48:00.295Z,5.03
2018-11-03T15:52:57.755Z,5.17
2018-11-03T15:57:55.233Z,5.50
2018-11-03T16:02:52.699Z,5.60
2018-11-03T16:07:50.145Z,5.93
2018-11-03T16:12:47.688Z,4.80
2018-11-03T16:17:45.099Z,6.03
2018-11-03T16:22:43.370Z,6.20
2018-11-03T16:27:41.909Z,6.77
2018-11-03T16:32:39.683Z,7.67
2018-11-03T16:37:37.298Z,7.63
2018-11-03T16:42:34.841Z,9.73
2018-11-03T16:47:32.741Z,9.80
2018-11-03T16:52:32.787Z,11.40
2018-11-03T16:57:30.332Z,10.17
2018-11-03T17:02:27.785Z,9.70
2018-11-03T17:07:25.351Z,11.80
2018-11-03T17:12:22.906Z,11.30
2018-11-03T17:17:20.505Z,9.23
2018-11-03T17:22:17.977Z,10.20
2018-11-03T17:27:15.416Z,11.20
2018-11-03T17:32:12.860Z,12.40
2018-11-03T17:37:10.333Z,14.77
2018-11-03T17:42:07.812Z,12.43
2018-11-03T17:47:05.429Z,13.17
2018-11-03T17:52:02.892Z,14.17
2018-11-03T17:57:00.559Z,12.40
2018-11-03T18:01:58.351Z,12.30
2018-11-03T18:06:55.792Z,12.37
2018-11-03T18:11:53.270Z,12.10
2018-11-03T18:16:51.941Z,13.10
2018-11-03T18:21:49.369Z,12.40
2018-11-03T18:26:53.064Z,12.57
2018-11-03T18:31:50.635Z,12.93
2018-11-03T18:36:48.128Z,15.07
2018-11-03T18:41:45.675Z,15.40
2018-11-03T18:46:44.850Z,17.93
2018-11-03T18:51:42.424Z,16.77
2018-11-03T18:56:39.885Z,18.00
2018-11-03T19:01:37.340Z,17.97
2018-11-03T19:06:34.785Z,17.10
2018-11-03T19:11:32.245Z,15.97
2018-11-03T19:16:31.181Z,16.93
2018-11-03T19:21:28.676Z,16.63
2018-11-03T19:26:26.161Z,18.47
2018-11-03T19:31:23.636Z,17.40
2018-11-03T19:36:21.073Z,17.23
2018-11-03T19:41:18.562Z,15.80
2018-11-03T19:46:20.186Z,17.20
2018-11-03T19:51:17.707Z,14.80
2018-11-03T19:56:15.157Z,15.30
2018-11-03T20:01:12.685Z,17.40
2018-11-03T20:06:10.156Z,15.90
2018-11-03T20:11:07.613Z,16.00
2018-11-03T20:16:08.427Z,16.07
2018-11-03T20:21:06.071Z,17.17
2018-11-03T20:26:03.573Z,15.13
2018-11-03T20:31:01.042Z,17.20
2018-11-03T20:35:58.548Z,16.50
2018-11-03T20:40:55.973Z,16.50
2018-11-03T20:46:05.153Z,17.53
2018-11-03T20:51:07.672Z,18.80
2018-11-03T20:56:05.597Z,17.90
2018-11-03T21:01:03.368Z,18.93
2018-11-03T21:06:01.076Z,21.73
2018-11-03T21:10:58.524Z,23.53
2018-11-03T21:16:02.407Z,18.40
2018-11-03T21:20:59.900Z,19.87
2018-11-03T21:25:57.429Z,19.60
2018-11-03T21:30:54.859Z,17.87
2018-11-03T21:35:52.332Z,18.77
2018-11-03T21:40:49.765Z,17.17
2018-11-03T21:45:59.852Z,16.73
2018-11-03T21:50:57.418Z,16.60
2018-11-03T21:55:54.943Z,19.67
2018-11-03T22:00:52.325Z,17.37
2018-11-03T22:05:49.959Z,17.13
2018-11-03T22:10:47.407Z,16.50
2018-11-03T22:15:47.665Z,17.30
2018-11-03T22:20:45.177Z,20.03
2018-11-03T22:25:42.611Z,18.73
2018-11-03T22:30:40.050Z,17.10
2018-11-03T22:35:37.481Z,17.60
2018-11-03T22:40:34.921Z,17.63
2018-11-03T22:45:32.783Z,17.80
2018-11-03T22:50:30.217Z,17.60
2018-11-03T22:55:27.639Z,17.00
2018-11-03T23:00:25.172Z,18.73
2018-11-03T23:05:22.593Z,19.70
2018-11-03T23:10:20.029Z,16.97
2018-11-03T23:15:17.425Z,18.73
2018-11-03T23:20:14.867Z,20.90
2018-11-03T23:25:12.299Z,17.47
2018-11-03T23:30:11.068Z,18.80
2018-11-03T23:35:10.381Z,18.77
2018-11-03T23:40:08.808Z,18.53
2018-11-03T23:45:07.376Z,20.90
2018-11-03T23:50:06.265Z,20.27
2018-11-03T23:55:05.089Z,19.70
